Time;durP1;ratioP1;P1;durP2;ratioP2;P2;SDS_P1;SDS_P2;PMS_P1;PMS_P2;Temp;Humidity;BMP_temperature;BMP_pressure;BME280_temperature;BME280_humidity;BME280_pressure;Samples;Min_cycle;Max_cycle;Signal;HPM_P1;HPM_P2
2023/12/17 00:01:25;;;;;;;11.63;5.72;;;9.80;99.90;;;;;;4830933;29;20065;-81
2023/12/17 00:03:50;;;;;;;8.18;5.15;;;9.80;99.90;;;;;;4823658;29;20047;-82
2023/12/17 00:06:16;;;;;;;8.07;5.32;;;9.80;99.90;;;;;;4830847;29;20073;-81
2023/12/17 00:08:43;;;;;;;7.72;5.35;;;9.80;99.90;;;;;;4835177;29;20479;-82
2023/12/17 00:11:09;;;;;;;8.43;5.50;;;9.80;99.90;;;;;;4836148;29;20053;-81
2023/12/17 00:13:35;;;;;;;9.85;5.30;;;9.80;99.90;;;;;;4836323;29;20054;-82
2023/12/17 00:16:01;;;;;;;10.50;5.30;;;9.80;99.90;;;;;;4830159;29;20107;-81
2023/12/17 00:18:27;;;;;;;10.73;5.32;;;9.80;99.90;;;;;;4842544;29;20046;-81
2023/12/17 00:20:53;;;;;;;10.45;5.40;;;9.80;99.90;;;;;;4831457;29;20500;-82
2023/12/17 00:23:18;;;;;;;9.85;5.13;;;9.70;99.90;;;;;;4834660;29;20053;-81
2023/12/17 00:25:44;;;;;;;11.85;5.43;;;9.70;99.90;;;;;;4836371;29;20053;-81
2023/12/17 00:28:09;;;;;;;9.38;5.25;;;9.80;99.90;;;;;;4837001;29;20058;-81
2023/12/17 00:30:35;;;;;;;12.50;5.82;;;9.80;99.90;;;;;;4832496;29;20123;-81
2023/12/17 00:33:01;;;;;;;11.10;5.25;;;9.80;99.90;;;;;;4825337;29;20085;-81
2023/12/17 00:35:26;;;;;;;9.68;5.78;;;9.70;99.90;;;;;;4832758;29;20424;-81
2023/12/17 00:37:52;;;;;;;10.65;5.57;;;9.80;99.90;;;;;;4832877;29;20138;-81
2023/12/17 00:40:17;;;;;;;9.43;5.72;;;9.80;99.90;;;;;;4831510;29;20050;-81
2023/12/17 00:42:43;;;;;;;11.75;5.43;;;9.70;99.90;;;;;;4839450;29;20061;-82
2023/12/17 00:45:09;;;;;;;10.85;5.47;;;9.80;99.90;;;;;;4838195;29;20061;-82
2023/12/17 00:47:35;;;;;;;10.45;5.32;;;9.70;99.90;;;;;;4837411;29;20084;-81
2023/12/17 00:50:00;;;;;;;9.43;4.88;;;9.70;99.90;;;;;;4838191;29;20106;-82
2023/12/17 00:52:26;;;;;;;11.80;5.43;;;9.70;99.90;;;;;;4838756;29;20054;-82
2023/12/17 00:54:51;;;;;;;11.13;4.90;;;9.70;99.90;;;;;;4840232;29;20129;-82
2023/12/17 00:57:18;;;;;;;8.77;5.00;;;9.70;99.90;;;;;;4825733;29;20758;-81
2023/12/17 00:59:43;;;;;;;10.25;5.18;;;10.10;99.90;;;;;;4830023;29;20173;-81
2023/12/17 01:02:09;;;;;;;8.57;4.72;;;9.70;99.90;;;;;;4828657;29;20418;-82
2023/12/17 01:04:35;;;;;;;9.85;5.35;;;9.70;99.90;;;;;;4820472;29;20158;-81
2023/12/17 01:07:00;;;;;;;9.93;5.70;;;9.80;99.90;;;;;;4829677;29;20054;-81
2023/12/17 01:09:26;;;;;;;8.60;5.72;;;9.70;99.90;;;;;;4836989;29;20139;-81
2023/12/17 01:11:51;;;;;;;10.48;5.55;;;9.70;99.90;;;;;;4839527;29;20508;-81
2023/12/17 01:14:17;;;;;;;11.68;5.18;;;9.70;99.90;;;;;;4839753;29;20587;-81
2023/12/17 01:16:42;;;;;;;8.05;5.00;;;9.70;99.90;;;;;;4825870;29;20047;-81
2023/12/17 01:19:08;;;;;;;10.85;5.10;;;9.70;99.90;;;;;;4837882;29;20050;-81
2023/12/17 01:21:34;;;;;;;9.82;5.75;;;9.70;99.90;;;;;;4833459;29;20129;-81
2023/12/17 01:24:00;;;;;;;9.15;4.97;;;9.80;99.90;;;;;;4834929;29;20073;-81
2023/12/17 01:26:29;;;;;;;8.90;5.13;;;9.70;99.90;;;;;;4824203;29;20046;-81
2023/12/17 01:28:55;;;;;;;12.23;5.65;;;9.80;99.90;;;;;;4822118;29;20061;-81
2023/12/17 01:31:21;;;;;;;8.77;5.00;;;9.80;99.90;;;;;;4828713;29;20054;-81
2023/12/17 01:33:47;;;;;;;11.45;5.60;;;9.80;99.90;;;;;;4837658;29;20060;-81
2023/12/17 01:36:12;;;;;;;9.80;5.13;;;9.70;99.90;;;;;;4830949;29;20513;-81
2023/12/17 01:38:38;;;;;;;11.25;5.70;;;9.80;99.90;;;;;;4832238;29;20160;-82
2023/12/17 01:41:04;;;;;;;11.38;5.68;;;9.80;99.90;;;;;;4837817;29;20042;-81
2023/12/17 01:43:30;;;;;;;13.65;5.70;;;9.80;99.90;;;;;;4838664;29;20041;-81
2023/12/17 01:45:56;;;;;;;11.65;5.38;;;9.80;99.90;;;;;;4832848;29;20054;-82
2023/12/17 01:48:22;;;;;;;11.00;5.90;;;9.80;99.90;;;;;;4822343;29;20046;-81
2023/12/17 01:50:49;;;;;;;11.32;5.57;;;9.80;99.90;;;;;;4820457;29;20082;-81
2023/12/17 01:53:16;;;;;;;9.27;6.03;;;9.80;99.90;;;;;;4843028;29;21477;-81
2023/12/17 01:55:43;;;;;;;13.23;6.10;;;10.10;99.90;;;;;;4835597;29;20105;-81
2023/12/17 01:58:10;;;;;;;10.32;5.85;;;9.80;99.90;;;;;;4823515;29;20046;-81
2023/12/17 02:00:36;;;;;;;10.10;5.40;;;9.80;99.90;;;;;;4836192;29;20050;-81
2023/12/17 02:03:03;;;;;;;8.43;5.60;;;9.80;99.90;;;;;;4836296;29;20057;-81
2023/12/17 02:05:35;;;;;;;11.48;5.50;;;9.80;99.90;;;;;;4838196;29;20513;-81
2023/12/17 02:08:02;;;;;;;11.60;5.80;;;9.80;99.90;;;;;;4849674;29;20049;-81
2023/12/17 02:10:27;;;;;;;9.80;5.03;;;9.80;99.90;;;;;;4834402;29;20119;-82
2023/12/17 02:12:53;;;;;;;10.43;5.85;;;9.80;99.90;;;;;;4827033;29;20142;-82
2023/12/17 02:15:19;;;;;;;9.27;5.88;;;9.80;99.90;;;;;;4833257;29;20081;-81
2023/12/17 02:17:45;;;;;;;10.13;6.15;;;9.80;99.90;;;;;;4824952;29;20170;-81
2023/12/17 02:20:11;;;;;;;12.60;6.53;;;9.70;99.90;;;;;;4837936;29;20053;-81
2023/12/17 02:22:38;;;;;;;10.32;6.38;;;9.70;99.90;;;;;;4837458;29;20137;-81
2023/12/17 02:25:04;;;;;;;11.43;6.65;;;9.80;99.90;;;;;;4836715;29;20508;-82
2023/12/17 02:27:29;;;;;;;12.70;6.20;;;9.70;99.90;;;;;;4836754;29;20042;-82
2023/12/17 02:29:55;;;;;;;12.60;6.40;;;9.70;99.90;;;;;;4837014;29;20056;-82
2023/12/17 02:32:23;;;;;;;10.95;7.05;;;9.70;99.90;;;;;;4833939;29;20057;-82
2023/12/17 02:34:49;;;;;;;9.85;6.00;;;9.70;99.90;;;;;;4836431;29;20076;-81
2023/12/17 02:37:16;;;;;;;11.57;6.93;;;9.70;99.90;;;;;;4837441;29;20101;-82
2023/12/17 02:39:42;;;;;;;10.57;6.57;;;9.80;99.90;;;;;;4836391;29;20128;-81
2023/12/17 02:42:07;;;;;;;14.23;7.50;;;9.80;99.90;;;;;;4836560;29;20140;-81
2023/12/17 02:44:33;;;;;;;14.02;7.15;;;9.80;99.90;;;;;;4836144;29;20046;-82
2023/12/17 02:46:58;;;;;;;13.73;7.97;;;9.80;99.90;;;;;;4830905;29;20054;-81
2023/12/17 02:49:25;;;;;;;11.20;7.05;;;9.80;99.90;;;;;;4818824;29;20057;-81
2023/12/17 02:51:51;;;;;;;10.43;6.80;;;9.80;99.90;;;;;;4819166;29;20057;-81
2023/12/17 02:54:18;;;;;;;10.07;7.50;;;9.80;99.90;;;;;;4818729;29;20050;-81
2023/12/17 02:56:43;;;;;;;9.95;7.18;;;9.70;99.90;;;;;;4819438;29;20089;-81
2023/12/17 02:59:10;;;;;;;11.45;7.10;;;9.70;99.90;;;;;;4810471;29;20525;-81
2023/12/17 03:01:36;;;;;;;12.00;7.10;;;9.70;99.90;;;;;;4828855;29;20148;-82
2023/12/17 03:04:05;;;;;;;11.52;6.93;;;9.80;99.90;;;;;;4829154;29;20394;-81
2023/12/17 03:06:31;;;;;;;12.80;6.90;;;10.30;99.90;;;;;;4837095;29;20077;-82
2023/12/17 03:08:57;;;;;;;11.38;7.13;;;9.70;99.90;;;;;;4836203;29;20065;-81
2023/12/17 03:11:22;;;;;;;12.20;6.85;;;9.70;99.90;;;;;;4834761;29;20157;-82
2023/12/17 03:13:48;;;;;;;13.05;7.25;;;9.70;99.90;;;;;;4835898;29;20110;-81
2023/12/17 03:16:13;;;;;;;11.93;7.80;;;9.70;99.90;;;;;;4832383;29;20422;-82
2023/12/17 03:18:39;;;;;;;10.65;6.72;;;9.70;99.90;;;;;;4837188;29;20389;-82
2023/12/17 03:21:07;;;;;;;12.70;7.97;;;9.70;99.90;;;;;;4837091;29;20115;-82
2023/12/17 03:23:33;;;;;;;12.40;7.03;;;9.80;99.90;;;;;;4827185;29;20059;-82
2023/12/17 03:25:59;;;;;;;10.07;6.85;;;9.80;99.90;;;;;;4823265;29;20421;-82
2023/12/17 03:28:24;;;;;;;11.63;7.35;;;9.80;99.90;;;;;;4835163;29;20050;-82
2023/12/17 03:30:50;;;;;;;14.38;7.75;;;9.70;99.90;;;;;;4850071;29;20042;-82
2023/12/17 03:33:15;;;;;;;13.00;6.95;;;9.70;99.90;;;;;;4821302;29;20062;-82
2023/12/17 03:35:41;;;;;;;14.85;7.68;;;9.70;99.90;;;;;;4834362;29;20062;-81
2023/12/17 03:38:07;;;;;;;11.57;7.43;;;9.70;99.90;;;;;;4835530;29;20064;-82
2023/12/17 03:40:33;;;;;;;12.57;7.78;;;9.70;99.90;;;;;;4834719;29;20050;-82
2023/12/17 03:43:00;;;;;;;11.60;7.90;;;9.70;99.90;;;;;;4835318;29;20056;-81
2023/12/17 03:45:26;;;;;;;15.52;7.88;;;9.70;99.90;;;;;;4834354;29;20062;-81
2023/12/17 03:47:51;;;;;;;16.90;7.93;;;9.70;99.90;;;;;;4836332;29;20052;-82
2023/12/17 03:50:19;;;;;;;11.93;7.90;;;9.60;99.90;;;;;;4835882;29;20072;-81
2023/12/17 03:52:46;;;;;;;13.65;9.05;;;9.70;99.90;;;;;;4834728;29;20050;-82
2023/12/17 03:55:12;;;;;;;12.38;8.38;;;9.60;99.90;;;;;;4835415;29;20580;-81
2023/12/17 03:57:38;;;;;;;13.85;8.00;;;9.60;99.90;;;;;;4833778;29;20058;-81
2023/12/17 04:00:04;;;;;;;12.35;8.18;;;9.70;99.90;;;;;;4827336;29;20414;-81
2023/12/17 04:02:30;;;;;;;12.77;7.93;;;9.60;99.90;;;;;;4835496;29;20054;-81
2023/12/17 04:04:56;;;;;;;16.50;8.38;;;9.60;99.90;;;;;;4835745;29;20118;-82
2023/12/17 04:07:21;;;;;;;9.93;7.80;;;9.60;99.90;;;;;;4836404;29;20053;-82
2023/12/17 04:09:47;;;;;;;12.55;7.88;;;9.60;99.90;;;;;;4838579;29;20054;-81
2023/12/17 04:12:13;;;;;;;14.10;8.30;;;9.60;99.90;;;;;;4822749;29;20554;-81
2023/12/17 04:14:39;;;;;;;12.88;8.18;;;9.60;99.90;;;;;;4822053;29;20148;-81
2023/12/17 04:17:04;;;;;;;12.73;7.95;;;9.60;99.90;;;;;;4822665;29;20046;-81
2023/12/17 04:19:30;;;;;;;11.95;8.32;;;9.70;99.90;;;;;;4828763;29;20050;-81
2023/12/17 04:21:56;;;;;;;11.35;7.70;;;9.70;99.90;;;;;;4834767;29;20046;-81
2023/12/17 04:24:21;;;;;;;13.68;8.25;;;9.30;99.90;;;;;;4854440;29;20125;-82
2023/12/17 04:26:47;;;;;;;11.38;7.10;;;9.70;99.90;;;;;;4839047;29;20125;-82
2023/12/17 04:29:12;;;;;;;12.43;7.30;;;9.60;99.90;;;;;;4839089;29;20089;-81
2023/12/17 04:31:38;;;;;;;13.23;7.15;;;9.70;99.90;;;;;;4839083;29;20050;-81
2023/12/17 04:34:04;;;;;;;10.20;7.30;;;9.70;99.90;;;;;;4835204;29;20066;-81
2023/12/17 04:36:29;;;;;;;12.63;6.90;;;9.70;99.90;;;;;;4841759;29;20056;-82
2023/12/17 04:38:55;;;;;;;11.50;7.53;;;9.60;99.90;;;;;;4820885;29;20122;-81
2023/12/17 04:41:20;;;;;;;10.80;7.57;;;9.70;99.90;;;;;;4839242;29;20503;-82
2023/12/17 04:43:46;;;;;;;13.27;7.15;;;9.70;99.90;;;;;;4837480;29;20054;-81
2023/12/17 04:46:11;;;;;;;11.35;6.55;;;9.70;99.90;;;;;;4840196;29;20393;-82
2023/12/17 04:48:37;;;;;;;11.02;6.90;;;9.70;99.90;;;;;;4840223;29;20057;-81
2023/12/17 04:51:03;;;;;;;13.45;7.18;;;9.70;99.90;;;;;;4821516;29;20081;-82
2023/12/17 04:53:28;;;;;;;11.18;7.20;;;9.70;99.90;;;;;;4834320;29;20132;-82
2023/12/17 04:55:54;;;;;;;13.10;6.97;;;9.70;99.90;;;;;;4822883;29;20501;-82
2023/12/17 04:58:19;;;;;;;10.70;6.95;;;9.60;99.90;;;;;;4833598;29;20062;-81
2023/12/17 05:00:45;;;;;;;10.43;6.65;;;9.60;99.90;;;;;;4838069;29;20047;-82
2023/12/17 05:03:11;;;;;;;14.10;7.15;;;9.60;99.90;;;;;;4829956;29;20065;-82
2023/12/17 05:05:36;;;;;;;9.57;6.68;;;9.60;99.90;;;;;;4837875;29;20139;-82
2023/12/17 05:08:02;;;;;;;8.13;6.75;;;9.60;99.90;;;;;;4834889;29;20088;-81
2023/12/17 05:10:27;;;;;;;10.75;7.28;;;9.60;99.90;;;;;;4834543;29;20401;-82
2023/12/17 05:12:53;;;;;;;11.70;7.63;;;9.60;99.90;;;;;;4839523;29;20076;-82
2023/12/17 05:15:20;;;;;;;11.23;7.78;;;9.60;99.90;;;;;;4838856;29;20160;-82
2023/12/17 05:17:46;;;;;;;14.52;7.55;;;9.60;99.90;;;;;;4832365;29;20467;-82
2023/12/17 05:20:11;;;;;;;10.52;8.00;;;9.60;99.90;;;;;;4820434;29;20050;-82
2023/12/17 05:22:37;;;;;;;10.55;7.25;;;9.60;99.90;;;;;;4834434;29;20128;-82
2023/12/17 05:25:03;;;;;;;9.32;7.03;;;9.60;99.90;;;;;;4825150;29;20083;-81
2023/12/17 05:27:28;;;;;;;11.18;7.20;;;9.60;99.90;;;;;;4838938;29;20102;-82
2023/12/17 05:29:54;;;;;;;10.32;7.35;;;9.60;99.90;;;;;;4836947;29;20049;-82
2023/12/17 05:32:19;;;;;;;10.23;7.32;;;9.60;99.90;;;;;;4829107;29;20046;-82
2023/12/17 05:34:45;;;;;;;13.27;7.82;;;9.60;99.90;;;;;;4827834;29;20089;-82
2023/12/17 05:37:11;;;;;;;10.32;7.45;;;9.60;99.90;;;;;;4837976;29;20114;-81
2023/12/17 05:39:36;;;;;;;11.20;7.38;;;9.60;99.90;;;;;;4836951;29;20412;-81
2023/12/17 05:42:02;;;;;;;8.13;7.05;;;9.70;99.90;;;;;;4833896;29;20045;-82
2023/12/17 05:44:28;;;;;;;10.48;7.38;;;9.60;99.90;;;;;;4834042;29;20084;-81
2023/12/17 05:46:53;;;;;;;9.50;7.05;;;9.60;99.90;;;;;;4838246;29;20499;-82
2023/12/17 05:49:19;;;;;;;9.95;7.35;;;9.60;99.90;;;;;;4838063;29;20054;-81
2023/12/17 05:51:45;;;;;;;10.52;7.05;;;9.60;99.90;;;;;;4831525;29;20042;-82
2023/12/17 05:54:11;;;;;;;10.43;6.90;;;9.60;99.90;;;;;;4829799;29;20045;-82
2023/12/17 05:56:43;;;;;;;12.25;6.43;;;9.60;99.90;;;;;;4837247;29;20084;-81
2023/12/17 05:59:10;;;;;;;8.98;7.03;;;9.60;99.90;;;;;;4824584;29;20050;-82
2023/12/17 06:01:36;;;;;;;10.00;6.85;;;9.50;99.90;;;;;;4830789;29;20126;-81
2023/12/17 06:04:02;;;;;;;8.45;6.25;;;9.50;99.90;;;;;;4836883;29;20057;-81
2023/12/17 06:06:28;;;;;;;10.32;6.75;;;9.50;99.90;;;;;;4837829;29;20576;-81
2023/12/17 06:08:53;;;;;;;8.00;6.47;;;9.50;99.90;;;;;;4837010;29;20175;-81
2023/12/17 06:11:19;;;;;;;9.48;5.93;;;9.50;99.90;;;;;;4837475;29;20056;-82
2023/12/17 06:13:45;;;;;;;9.48;6.22;;;9.50;99.90;;;;;;4836936;29;20046;-81
2023/12/17 06:16:11;;;;;;;8.55;5.72;;;10.10;99.90;;;;;;4827787;29;20540;-81
2023/12/17 06:18:38;;;;;;;9.07;6.22;;;9.50;99.90;;;;;;4831869;29;20046;-81
2023/12/17 06:21:05;;;;;;;10.77;5.60;;;9.50;99.90;;;;;;4838638;29;20073;-82
2023/12/17 06:23:31;;;;;;;10.48;6.07;;;9.50;99.90;;;;;;4835355;29;20187;-81
2023/12/17 06:25:57;;;;;;;8.32;5.53;;;9.50;99.90;;;;;;4832547;29;20057;-81
2023/12/17 06:28:26;;;;;;;9.68;6.18;;;9.50;99.90;;;;;;4835826;29;20180;-81
2023/12/17 06:30:51;;;;;;;10.25;6.05;;;9.60;99.90;;;;;;4835264;29;20603;-81
2023/12/17 06:33:17;;;;;;;8.30;5.40;;;9.40;99.90;;;;;;4835289;29;20181;-82
2023/12/17 06:35:45;;;;;;;8.25;6.15;;;9.40;99.90;;;;;;4832038;29;20057;-82
2023/12/17 06:38:10;;;;;;;7.90;5.70;;;9.40;99.90;;;;;;4835496;29;20769;-81
2023/12/17 06:40:36;;;;;;;9.25;5.38;;;9.40;99.90;;;;;;4846795;29;20142;-81
2023/12/17 06:43:02;;;;;;;7.95;5.32;;;9.30;99.90;;;;;;4833146;29;21007;-80
2023/12/17 06:45:28;;;;;;;7.90;6.28;;;9.30;99.90;;;;;;4832104;29;20050;-80
2023/12/17 06:47:54;;;;;;;9.57;6.63;;;9.30;99.90;;;;;;4832546;29;20547;-80
2023/12/17 06:50:20;;;;;;;8.88;7.20;;;9.30;99.90;;;;;;4836697;29;20054;-81
2023/12/17 06:52:45;;;;;;;10.07;6.63;;;9.30;99.90;;;;;;4836470;29;20057;-81
2023/12/17 06:55:11;;;;;;;11.13;7.68;;;9.30;99.90;;;;;;4837638;29;20042;-81
2023/12/17 06:57:36;;;;;;;12.00;7.15;;;9.30;99.90;;;;;;4840739;29;21335;-81
2023/12/17 07:00:03;;;;;;;12.82;7.03;;;9.30;99.90;;;;;;4829045;29;20045;-81
2023/12/17 07:02:28;;;;;;;8.60;6.57;;;9.30;99.90;;;;;;4836457;29;20103;-80
2023/12/17 07:04:54;;;;;;;10.13;7.28;;;9.30;99.90;;;;;;4835767;29;20523;-81
2023/12/17 07:07:20;;;;;;;10.02;7.28;;;9.30;99.90;;;;;;4836250;29;20532;-81
2023/12/17 07:09:45;;;;;;;11.05;7.38;;;9.30;99.90;;;;;;4831857;29;20046;-81
2023/12/17 07:12:11;;;;;;;11.60;8.27;;;9.30;99.90;;;;;;4830958;29;20086;-81
2023/12/17 07:14:36;;;;;;;11.57;7.70;;;9.30;99.90;;;;;;4834593;29;20241;-81
2023/12/17 07:17:02;;;;;;;11.85;7.95;;;9.30;99.90;;;;;;4836511;29;20065;-81
2023/12/17 07:19:28;;;;;;;11.60;8.70;;;9.30;99.90;;;;;;4837544;29;20054;-81
2023/12/17 07:21:54;;;;;;;10.73;8.30;;;;;;;;;;4835933;29;20144;-81
2023/12/17 07:24:19;;;;;;;13.43;7.93;;;9.30;99.90;;;;;;4821927;29;20058;-82
2023/12/17 07:26:45;;;;;;;13.63;8.55;;;9.30;99.90;;;;;;4847087;29;20038;-83
2023/12/17 07:29:11;;;;;;;12.38;8.70;;;9.30;99.90;;;;;;4829218;29;20049;-82
2023/12/17 07:31:37;;;;;;;14.30;8.88;;;9.30;99.90;;;;;;4833922;29;20054;-82
2023/12/17 07:34:02;;;;;;;13.05;9.05;;;9.20;99.90;;;;;;4845708;29;20096;-82
2023/12/17 07:36:28;;;;;;;17.00;9.07;;;9.20;99.90;;;;;;4855746;29;20085;-82
2023/12/17 07:38:53;;;;;;;12.98;8.40;;;9.30;99.90;;;;;;4834429;29;20111;-82
2023/12/17 07:41:19;;;;;;;13.90;9.10;;;9.30;99.90;;;;;;4833562;29;20125;-81
2023/12/17 07:43:44;;;;;;;13.77;8.57;;;9.30;99.90;;;;;;4822037;29;20489;-83
2023/12/17 07:46:10;;;;;;;14.07;8.00;;;9.20;99.90;;;;;;4822616;29;20058;-82
2023/12/17 07:48:36;;;;;;;12.85;7.85;;;9.30;99.90;;;;;;4822408;29;20054;-83
2023/12/17 07:51:02;;;;;;;9.15;8.10;;;9.20;99.90;;;;;;4837124;29;20413;-83
2023/12/17 07:53:27;;;;;;;13.35;8.98;;;9.30;99.90;;;;;;4832251;29;20049;-83
2023/12/17 07:55:57;;;;;;;11.52;8.98;;;9.20;99.90;;;;;;4836036;29;20057;-84
2023/12/17 07:58:24;;;;;;;12.02;8.95;;;9.20;99.90;;;;;;4822651;29;20062;-81
2023/12/17 08:00:50;;;;;;;13.50;9.15;;;9.20;99.90;;;;;;4822583;29;20137;-81
2023/12/17 08:03:16;;;;;;;9.82;8.70;;;9.20;99.90;;;;;;4823065;29;20082;-82
2023/12/17 08:05:41;;;;;;;16.33;8.88;;;9.20;99.90;;;;;;4822873;29;20828;-82
2023/12/17 08:08:07;;;;;;;12.82;9.55;;;9.20;99.90;;;;;;4822396;29;20057;-82
2023/12/17 08:10:32;;;;;;;15.40;10.85;;;9.20;99.90;;;;;;4821430;29;20046;-82
2023/12/17 08:12:58;;;;;;;13.57;10.88;;;9.20;99.90;;;;;;4820755;29;20105;-82
2023/12/17 08:15:23;;;;;;;13.77;11.07;;;9.10;99.90;;;;;;4822286;29;20110;-82
2023/12/17 08:17:49;;;;;;;19.58;11.75;;;9.20;99.90;;;;;;4822294;29;20089;-83
2023/12/17 08:20:15;;;;;;;17.55;11.40;;;9.20;99.90;;;;;;4822659;29;20062;-81
2023/12/17 08:22:41;;;;;;;15.07;12.25;;;9.20;99.90;;;;;;4822137;29;20042;-80
2023/12/17 08:25:07;;;;;;;16.60;11.65;;;9.20;99.90;;;;;;4821480;29;20061;-80
2023/12/17 08:27:32;;;;;;;17.25;11.43;;;9.20;99.90;;;;;;4823130;29;20057;-81
2023/12/17 08:29:58;;;;;;;18.42;11.73;;;9.20;99.90;;;;;;4823045;29;20485;-81
2023/12/17 08:32:31;;;;;;;16.70;11.50;;;9.20;99.90;;;;;;4822709;29;20521;-82
2023/12/17 08:34:56;;;;;;;17.83;12.30;;;9.20;99.90;;;;;;4853866;29;20061;-81
2023/12/17 08:37:24;;;;;;;18.83;11.98;;;9.20;99.90;;;;;;4859598;29;20165;-81
2023/12/17 08:39:49;;;;;;;18.02;11.43;;;9.20;99.90;;;;;;4859894;29;20621;-81
2023/12/17 08:42:15;;;;;;;15.27;10.65;;;9.20;99.90;;;;;;4859686;29;20136;-81
2023/12/17 08:44:40;;;;;;;15.82;10.77;;;9.20;99.90;;;;;;4859791;29;21168;-80
2023/12/17 08:47:06;;;;;;;14.40;10.40;;;9.20;99.90;;;;;;4859545;29;20046;-81
2023/12/17 08:49:32;;;;;;;16.92;10.32;;;9.20;99.90;;;;;;4859932;29;20500;-80
2023/12/17 08:51:57;;;;;;;18.20;10.50;;;9.20;99.90;;;;;;4873491;29;20173;-81
2023/12/17 08:54:23;;;;;;;16.83;10.95;;;9.20;99.90;;;;;;4859087;29;20053;-81
2023/12/17 08:56:48;;;;;;;20.60;10.70;;;9.20;99.90;;;;;;4859364;29;20061;-81
2023/12/17 08:59:14;;;;;;;12.68;9.75;;;9.20;99.90;;;;;;4859569;29;20405;-81
2023/12/17 09:01:40;;;;;;;16.77;10.55;;;9.20;99.90;;;;;;4858687;29;20448;-81
2023/12/17 09:04:06;;;;;;;17.63;9.65;;;9.20;99.90;;;;;;4859363;29;20053;-81
2023/12/17 09:06:47;;;;;;;19.30;10.52;;;9.30;99.90;;;;;;4859194;29;20419;-81
2023/12/17 09:09:13;;;;;;;18.38;9.90;;;9.30;99.90;;;;;;4859165;29;20041;-81
2023/12/17 09:11:39;;;;;;;20.42;10.35;;;9.30;99.90;;;;;;4859076;29;20560;-81
2023/12/17 09:14:07;;;;;;;19.65;10.65;;;9.30;99.90;;;;;;4859294;29;20050;-81
2023/12/17 09:16:33;;;;;;;20.52;11.02;;;9.30;99.90;;;;;;4859482;29;20049;-81
2023/12/17 09:18:59;;;;;;;18.60;10.73;;;9.30;99.90;;;;;;4858932;29;20149;-81
2023/12/17 09:21:25;;;;;;;16.02;11.05;;;9.30;99.90;;;;;;4857979;29;20408;-81
2023/12/17 09:23:51;;;;;;;19.77;10.50;;;9.30;99.90;;;;;;4858648;29;20057;-81
2023/12/17 09:26:18;;;;;;;18.08;10.90;;;9.40;99.90;;;;;;4859368;29;20057;-81
2023/12/17 09:28:44;;;;;;;17.63;10.68;;;9.40;99.90;;;;;;4859617;29;20052;-82
2023/12/17 09:31:10;;;;;;;18.02;11.07;;;9.40;99.90;;;;;;4859097;29;20048;-82
2023/12/17 09:33:36;;;;;;;17.85;11.05;;;9.40;99.90;;;;;;4853693;29;20437;-81
2023/12/17 09:36:06;;;;;;;21.25;11.95;;;9.30;99.90;;;;;;4838714;29;20504;-82
2023/12/17 09:38:32;;;;;;;17.38;10.95;;;9.40;99.90;;;;;;4854238;29;20054;-81
2023/12/17 09:40:58;;;;;;;20.70;12.18;;;9.40;99.90;;;;;;4840106;29;20053;-81
2023/12/17 09:43:24;;;;;;;22.52;13.15;;;9.40;99.90;;;;;;4840548;29;20090;-82
2023/12/17 09:45:51;;;;;;;18.90;13.57;;;9.90;99.90;;;;;;4839078;29;20454;-82
2023/12/17 09:48:17;;;;;;;23.98;13.63;;;9.40;99.90;;;;;;4840320;29;20789;-81
2023/12/17 09:50:43;;;;;;;26.02;14.65;;;9.30;99.90;;;;;;4839851;29;20052;-82
2023/12/17 09:53:09;;;;;;;20.08;13.35;;;9.30;99.90;;;;;;4840042;29;20052;-81
2023/12/17 09:55:35;;;;;;;22.83;13.85;;;9.30;99.90;;;;;;4840245;29;20062;-82
2023/12/17 09:58:03;;;;;;;22.55;14.38;;;9.30;99.90;;;;;;4840785;29;20639;-82
2023/12/17 10:00:28;;;;;;;25.98;14.48;;;9.40;99.90;;;;;;4840342;29;20114;-80
2023/12/17 10:03:04;;;;;;;26.90;15.10;;;9.40;99.90;;;;;;4838121;29;20058;-81
2023/12/17 10:05:31;;;;;;;23.17;14.68;;;9.40;99.90;;;;;;4839373;29;20527;-81
2023/12/17 10:07:56;;;;;;;25.17;14.57;;;9.40;99.90;;;;;;4838253;29;20114;-81
2023/12/17 10:10:22;;;;;;;25.38;14.52;;;9.40;99.90;;;;;;4838984;29;20050;-81
2023/12/17 10:12:49;;;;;;;30.85;16.17;;;9.40;99.90;;;;;;4837230;29;20053;-82
2023/12/17 10:15:15;;;;;;;23.17;14.55;;;9.40;99.90;;;;;;4837672;29;20140;-81
2023/12/17 10:17:41;;;;;;;23.95;14.48;;;9.40;99.90;;;;;;4837376;29;20046;-81
2023/12/17 10:20:07;;;;;;;24.30;14.40;;;9.40;99.90;;;;;;4839045;29;20050;-81
2023/12/17 10:22:33;;;;;;;21.10;12.95;;;9.40;99.90;;;;;;4837137;29;20062;-80
2023/12/17 10:24:59;;;;;;;22.63;14.82;;;9.40;99.90;;;;;;4837346;29;20515;-82
2023/12/17 10:27:24;;;;;;;22.25;13.60;;;9.40;99.90;;;;;;4837819;29;20077;-83
2023/12/17 10:29:53;;;;;;;22.38;13.45;;;9.60;99.90;;;;;;4836240;29;20057;-80
2023/12/17 10:32:23;;;;;;;24.33;12.45;;;9.40;99.90;;;;;;4833431;29;20823;-81
2023/12/17 10:34:50;;;;;;;18.33;11.50;;;9.40;99.90;;;;;;4852725;29;20734;-83
2023/12/17 10:37:19;;;;;;;17.73;11.07;;;9.40;99.90;;;;;;4855129;29;20081;-81
2023/12/17 10:39:48;;;;;;;18.60;11.52;;;9.40;99.90;;;;;;4845103;29;20058;-81
2023/12/17 10:42:14;;;;;;;17.02;11.02;;;9.40;99.90;;;;;;4831764;29;20574;-81
2023/12/17 10:44:43;;;;;;;16.48;10.70;;;9.40;99.90;;;;;;4852818;29;20084;-81
2023/12/17 10:47:10;;;;;;;16.65;10.77;;;9.50;99.90;;;;;;4838078;29;20050;-81
2023/12/17 10:49:37;;;;;;;19.23;10.35;;;9.50;99.90;;;;;;4841665;29;20058;-81
2023/12/17 10:52:03;;;;;;;14.90;10.63;;;9.50;99.90;;;;;;4854562;29;20053;-81
2023/12/17 10:54:30;;;;;;;18.05;10.38;;;9.50;99.90;;;;;;4845844;29;20106;-81
2023/12/17 10:56:59;;;;;;;15.52;9.63;;;9.50;99.90;;;;;;4836545;29;20158;-81
2023/12/17 10:59:33;;;;;;;14.80;9.98;;;9.50;99.90;;;;;;4837563;29;20058;-82
2023/12/17 11:02:01;;;;;;;12.40;9.68;;;9.50;99.90;;;;;;4837737;29;20057;-82
2023/12/17 11:04:27;;;;;;;13.98;9.90;;;9.40;99.90;;;;;;4837739;29;20065;-82
2023/12/17 11:06:53;;;;;;;15.00;10.18;;;9.50;99.90;;;;;;4836827;29;20132;-81
2023/12/17 11:09:19;;;;;;;14.98;9.70;;;9.50;99.90;;;;;;4836580;29;20058;-80
2023/12/17 11:11:51;;;;;;;12.52;9.38;;;9.50;99.90;;;;;;4837826;29;20046;-81
2023/12/17 11:14:16;;;;;;;11.90;9.07;;;9.40;99.90;;;;;;4837346;29;20054;-81
2023/12/17 11:16:42;;;;;;;13.57;10.55;;;9.50;99.90;;;;;;4837593;29;20054;-80
2023/12/17 11:19:10;;;;;;;13.60;10.55;;;9.50;99.90;;;;;;4837224;29;20065;-80
2023/12/17 11:21:36;;;;;;;14.38;9.25;;;9.50;99.90;;;;;;4837357;29;20470;-80
2023/12/17 11:24:02;;;;;;;14.73;9.68;;;9.40;99.90;;;;;;4837047;29;20053;-82
2023/12/17 11:26:39;;;;;;;14.88;10.70;;;9.40;99.90;;;;;;4837793;29;20054;-81
2023/12/17 11:29:40;;;;;;;13.50;10.30;;;9.40;99.90;;;;;;4837526;29;20098;-80
2023/12/17 11:32:07;;;;;;;14.90;10.93;;;9.40;99.90;;;;;;4837307;29;20054;-80
2023/12/17 11:34:33;;;;;;;17.38;10.13;;;9.50;99.90;;;;;;4836101;29;20060;-80
2023/12/17 11:37:00;;;;;;;14.48;10.38;;;9.50;99.90;;;;;;4837163;29;20374;-79
2023/12/17 11:39:30;;;;;;;16.85;11.73;;;9.50;99.90;;;;;;4836120;29;20110;-79
2023/12/17 11:41:55;;;;;;;15.75;10.85;;;9.50;99.90;;;;;;4832501;29;20054;-80
2023/12/17 11:44:22;;;;;;;17.63;11.55;;;9.60;99.90;;;;;;4833905;29;20153;-81
2023/12/17 11:46:48;;;;;;;21.20;12.43;;;9.60;99.90;;;;;;4830741;29;20122;-80
2023/12/17 11:49:24;;;;;;;17.92;11.98;;;9.60;99.90;;;;;;4844226;29;20077;-80
2023/12/17 11:51:53;;;;;;;19.17;11.85;;;9.60;99.90;;;;;;4838433;29;20057;-80
2023/12/17 11:54:21;;;;;;;19.48;12.13;;;9.60;99.90;;;;;;4837734;29;20068;-80
2023/12/17 11:56:49;;;;;;;19.70;13.23;;;9.90;99.90;;;;;;4836971;29;20050;-79
2023/12/17 11:59:29;;;;;;;16.58;11.93;;;9.60;99.90;;;;;;4836581;29;20505;-80
2023/12/17 12:01:55;;;;;;;20.65;13.20;;;9.60;99.90;;;;;;4836974;29;20077;-80
2023/12/17 12:04:21;;;;;;;19.10;13.68;;;9.60;99.90;;;;;;4837745;29;20136;-80
2023/12/17 12:06:52;;;;;;;20.35;12.95;;;9.50;99.90;;;;;;4837065;29;20076;-80
2023/12/17 12:09:19;;;;;;;22.23;14.48;;;9.50;99.90;;;;;;4851493;29;20479;-80
2023/12/17 12:11:44;;;;;;;22.38;14.25;;;9.50;99.90;;;;;;4836722;29;20549;-79
2023/12/17 12:14:10;;;;;;;24.33;14.43;;;9.50;99.90;;;;;;4837158;29;20049;-79
2023/12/17 12:16:41;;;;;;;22.40;14.43;;;9.50;99.90;;;;;;4835880;29;20137;-80
2023/12/17 12:19:07;;;;;;;27.15;15.10;;;9.50;99.90;;;;;;4837021;29;20126;-80
2023/12/17 12:21:33;;;;;;;25.67;14.77;;;9.50;99.90;;;;;;4836269;29;20851;-80
2023/12/17 12:24:04;;;;;;;27.27;15.75;;;9.50;99.90;;;;;;4823070;29;20057;-79
2023/12/17 12:26:32;;;;;;;26.67;15.02;;;9.50;99.90;;;;;;4855671;29;20081;-79
2023/12/17 12:28:59;;;;;;;24.70;15.98;;;9.50;99.90;;;;;;4841558;29;20091;-80
2023/12/17 12:31:25;;;;;;;23.73;14.85;;;9.50;99.90;;;;;;4837633;29;20137;-80
2023/12/17 12:33:59;;;;;;;24.85;15.02;;;9.50;99.90;;;;;;4842497;29;20145;-79
2023/12/17 12:36:26;;;;;;;26.90;15.07;;;9.50;99.90;;;;;;4827194;29;20468;-80
2023/12/17 12:39:04;;;;;;;23.13;14.13;;;9.60;99.90;;;;;;4858342;29;20049;-80
2023/12/17 12:41:31;;;;;;;21.58;13.75;;;9.60;99.90;;;;;;4848953;29;20390;-80